createdAt,value
2023-03-29T00:00:30.204Z,155.37
2023-03-29T00:01:36.172Z,154.83
2023-03-29T00:02:31.298Z,154.90
2023-03-29T00:03:30.312Z,155.10
2023-03-29T00:04:30.267Z,154.00
2023-03-29T00:05:30.202Z,153.85
2023-03-29T00:06:30.193Z,154.35
2023-03-29T00:07:30.322Z,156.43
2023-03-29T00:08:30.180Z,153.23
2023-03-29T00:09:30.188Z,154.61
2023-03-29T00:10:30.248Z,161.89
2023-03-29T00:11:30.219Z,162.44
2023-03-29T00:12:30.260Z,156.49
2023-03-29T00:13:30.315Z,158.10
2023-03-29T00:14:30.372Z,153.27
2023-03-29T00:15:30.420Z,154.75
2023-03-29T00:16:30.478Z,155.85
2023-03-29T00:17:30.520Z,157.98
2023-03-29T00:18:30.574Z,158.28
2023-03-29T00:19:30.607Z,158.25
2023-03-29T00:20:30.641Z,150.34
2023-03-29T00:21:30.714Z,152.37
2023-03-29T00:22:30.742Z,153.49
2023-03-29T00:23:30.798Z,150.18
2023-03-29T00:24:30.859Z,147.78
2023-03-29T00:25:30.907Z,144.80
2023-03-29T00:26:30.946Z,141.49
2023-03-29T00:27:31.004Z,141.65
2023-03-29T00:28:31.049Z,138.54
2023-03-29T00:29:31.106Z,137.19
2023-03-29T00:30:31.126Z,136.54
2023-03-29T00:31:31.240Z,136.85
2023-03-29T00:32:31.369Z,145.46
2023-03-29T00:33:31.296Z,143.28
2023-03-29T00:34:31.326Z,131.71
2023-03-29T00:35:31.378Z,128.13
2023-03-29T00:36:31.424Z,132.03
2023-03-29T00:37:31.498Z,128.80
2023-03-29T00:38:31.553Z,134.93
2023-03-29T00:39:31.592Z,130.62
2023-03-29T00:40:31.635Z,129.60
2023-03-29T00:41:31.680Z,143.15
2023-03-29T00:42:31.742Z,162.08
2023-03-29T00:43:31.774Z,155.92
2023-03-29T00:44:31.840Z,148.07
2023-03-29T00:45:31.874Z,142.51
2023-03-29T00:46:32.033Z,146.23
2023-03-29T00:47:31.998Z,149.88
2023-03-29T00:48:32.014Z,151.24
2023-03-29T00:49:32.078Z,156.92
2023-03-29T00:50:32.129Z,152.40
2023-03-29T00:51:32.173Z,151.07
2023-03-29T00:52:32.211Z,150.37
2023-03-29T00:53:32.277Z,151.55
2023-03-29T00:54:32.394Z,148.27
2023-03-29T00:55:32.410Z,151.78
2023-03-29T00:56:32.424Z,155.26
2023-03-29T00:57:32.501Z,153.73
2023-03-29T00:58:32.541Z,158.86
2023-03-29T00:59:32.626Z,158.66
2023-03-29T01:00:32.673Z,156.52
2023-03-29T01:01:32.712Z,156.26
2023-03-29T01:02:32.859Z,149.56
2023-03-29T01:03:32.975Z,152.56
2023-03-29T01:04:32.874Z,160.90
2023-03-29T01:05:32.921Z,170.72
2023-03-29T01:06:33.047Z,178.53
2023-03-29T01:07:33.041Z,189.77
2023-03-29T01:08:33.110Z,181.92
2023-03-29T01:09:33.144Z,165.88
2023-03-29T01:10:33.209Z,163.54
2023-03-29T01:11:33.239Z,156.19
2023-03-29T01:12:33.313Z,157.14
2023-03-29T01:13:33.349Z,155.08
2023-03-29T01:14:33.390Z,156.43
2023-03-29T01:15:33.458Z,156.37
2023-03-29T01:16:33.649Z,154.27
2023-03-29T01:17:33.611Z,153.42
2023-03-29T01:18:33.628Z,153.48
2023-03-29T01:19:33.680Z,149.59
2023-03-29T01:20:33.724Z,148.32
2023-03-29T01:21:33.778Z,154.76
2023-03-29T01:22:33.843Z,157.70
2023-03-29T01:23:33.881Z,155.70
2023-03-29T01:24:33.932Z,155.66
2023-03-29T01:25:34.019Z,154.10
2023-03-29T01:26:34.070Z,156.24
2023-03-29T01:27:34.143Z,154.92
2023-03-29T01:28:34.193Z,156.98
2023-03-29T01:29:34.264Z,150.22
2023-03-29T01:30:34.294Z,151.04
2023-03-29T01:31:34.368Z,153.00
2023-03-29T01:32:34.400Z,149.12
2023-03-29T01:33:34.469Z,144.81
2023-03-29T01:34:34.513Z,141.33
2023-03-29T01:35:34.599Z,146.18
2023-03-29T01:36:34.607Z,144.29
2023-03-29T01:37:34.677Z,145.19
2023-03-29T01:38:34.746Z,142.08
2023-03-29T01:39:34.860Z,138.36
2023-03-29T01:40:34.842Z,146.82
2023-03-29T01:41:34.885Z,139.80
2023-03-29T01:42:34.929Z,139.78
2023-03-29T01:43:34.982Z,139.93
2023-03-29T01:44:35.034Z,140.25
2023-03-29T01:45:35.098Z,139.14
2023-03-29T01:46:35.187Z,143.07
2023-03-29T01:47:35.233Z,144.12
2023-03-29T01:48:35.279Z,143.65
2023-03-29T01:49:35.310Z,143.31
2023-03-29T01:50:35.386Z,141.23
2023-03-29T01:51:35.411Z,140.13
2023-03-29T01:52:35.464Z,144.01
2023-03-29T01:53:35.540Z,144.00
2023-03-29T01:54:35.571Z,144.85
2023-03-29T01:55:35.634Z,142.86
2023-03-29T01:56:35.681Z,142.90
2023-03-29T01:57:35.751Z,137.93
2023-03-29T01:58:35.808Z,143.62
2023-03-29T01:59:35.862Z,140.23
2023-03-29T02:00:35.908Z,141.66
2023-03-29T02:01:36.094Z,148.59
2023-03-29T02:02:36.079Z,147.17
2023-03-29T02:03:36.147Z,141.27
2023-03-29T02:04:36.132Z,139.90
2023-03-29T02:05:36.207Z,142.35
2023-03-29T02:06:36.266Z,141.51
2023-03-29T02:07:36.303Z,145.23
2023-03-29T02:08:36.373Z,142.51
2023-03-29T02:09:36.420Z,142.40
2023-03-29T02:10:36.520Z,141.43
2023-03-29T02:11:36.552Z,140.06
2023-03-29T02:12:36.609Z,137.02
2023-03-29T02:13:36.667Z,140.54
2023-03-29T02:14:36.712Z,136.20
2023-03-29T02:15:36.781Z,135.10
2023-03-29T02:16:36.832Z,137.73
2023-03-29T02:17:36.905Z,135.74
2023-03-29T02:18:36.924Z,142.78
2023-03-29T02:19:36.987Z,136.92
2023-03-29T02:20:37.032Z,135.93
2023-03-29T02:21:37.106Z,138.65
2023-03-29T02:22:37.208Z,137.87
2023-03-29T02:23:37.290Z,139.77
2023-03-29T02:24:37.260Z,138.19
2023-03-29T02:25:37.316Z,134.92
2023-03-29T02:26:37.403Z,136.91
2023-03-29T02:27:37.453Z,134.04
2023-03-29T02:28:37.511Z,132.53
2023-03-29T02:29:37.557Z,140.95
2023-03-29T02:30:37.651Z,141.14
2023-03-29T02:31:37.751Z,142.61
2023-03-29T02:32:37.822Z,137.66
2023-03-29T02:33:37.797Z,148.57
2023-03-29T02:34:37.867Z,138.59
2023-03-29T02:35:37.989Z,138.30
2023-03-29T02:36:37.967Z,143.76
2023-03-29T02:37:38.035Z,138.01
2023-03-29T02:38:38.087Z,139.74
2023-03-29T02:39:38.138Z,144.19
2023-03-29T02:40:38.207Z,143.67
2023-03-29T02:41:38.234Z,142.88
2023-03-29T02:42:38.298Z,141.63
2023-03-29T02:43:38.372Z,145.13
2023-03-29T02:44:38.415Z,149.75
2023-03-29T02:45:38.552Z,149.32
2023-03-29T02:46:38.546Z,153.06
2023-03-29T02:47:38.623Z,153.23
2023-03-29T02:48:38.651Z,155.44
2023-03-29T02:49:38.700Z,154.65
2023-03-29T02:50:38.762Z,154.57
2023-03-29T02:51:38.821Z,153.37
2023-03-29T02:52:38.882Z,156.66
2023-03-29T02:53:38.967Z,157.82
2023-03-29T02:54:39.015Z,157.73
2023-03-29T02:55:39.078Z,159.45
2023-03-29T02:56:39.154Z,166.71
2023-03-29T02:57:39.179Z,168.88
2023-03-29T02:58:39.263Z,172.38
2023-03-29T02:59:39.314Z,170.20
2023-03-29T03:00:39.386Z,164.43
2023-03-29T03:01:39.452Z,163.35
2023-03-29T03:02:39.548Z,163.86
2023-03-29T03:03:39.622Z,174.39
2023-03-29T03:04:39.597Z,173.07
2023-03-29T03:05:39.647Z,173.55
2023-03-29T03:06:39.725Z,175.43
2023-03-29T03:07:39.878Z,171.65
2023-03-29T03:08:39.847Z,173.74
2023-03-29T03:09:39.889Z,170.94
2023-03-29T03:10:39.958Z,172.32
2023-03-29T03:11:40.018Z,170.07
2023-03-29T03:12:40.074Z,173.40
2023-03-29T03:13:40.131Z,174.40
2023-03-29T03:14:40.208Z,172.27
2023-03-29T03:15:40.257Z,178.25
2023-03-29T03:16:40.367Z,177.07
2023-03-29T03:17:40.417Z,172.94
2023-03-29T03:18:40.421Z,179.17
2023-03-29T03:19:40.485Z,176.43
2023-03-29T03:20:40.552Z,175.92
2023-03-29T03:21:40.587Z,169.20
2023-03-29T03:22:40.636Z,172.04
2023-03-29T03:23:40.692Z,175.28
2023-03-29T03:24:40.757Z,170.13
2023-03-29T03:25:40.827Z,171.90
2023-03-29T03:26:40.884Z,177.77
2023-03-29T03:27:40.911Z,175.20
2023-03-29T03:28:40.968Z,172.80
2023-03-29T03:29:41.142Z,173.51
2023-03-29T03:30:41.092Z,175.78
2023-03-29T03:31:41.216Z,181.82
2023-03-29T03:32:41.248Z,182.40
2023-03-29T03:33:41.262Z,176.66
2023-03-29T03:34:41.318Z,177.77
2023-03-29T03:35:41.383Z,179.32
2023-03-29T03:36:41.441Z,174.71
2023-03-29T03:37:41.500Z,184.29
2023-03-29T03:38:41.550Z,178.89
2023-03-29T03:39:41.605Z,181.25
2023-03-29T03:40:41.644Z,177.66
2023-03-29T03:41:41.742Z,173.52
2023-03-29T03:42:41.798Z,178.35
2023-03-29T03:43:41.814Z,179.53
2023-03-29T03:44:41.897Z,176.03
2023-03-29T03:45:41.935Z,172.18
2023-03-29T03:46:41.974Z,174.64
2023-03-29T03:47:42.075Z,177.03
2023-03-29T03:48:42.083Z,187.97
2023-03-29T03:49:42.126Z,188.49
2023-03-29T03:50:42.213Z,190.07
2023-03-29T03:51:42.260Z,180.17
2023-03-29T03:52:42.297Z,172.90
2023-03-29T03:53:42.387Z,167.81
2023-03-29T03:54:42.421Z,170.59
2023-03-29T03:55:42.461Z,172.92
2023-03-29T03:56:42.526Z,172.74
2023-03-29T03:57:42.574Z,178.72
2023-03-29T03:58:42.670Z,186.83
2023-03-29T03:59:42.691Z,182.82
2023-03-29T04:00:42.774Z,175.48
2023-03-29T04:01:42.823Z,176.99
2023-03-29T04:02:42.952Z,171.60
2023-03-29T04:03:43.066Z,173.36
2023-03-29T04:04:43.000Z,170.63
2023-03-29T04:05:43.057Z,171.95
2023-03-29T04:06:43.884Z,171.25
2023-03-29T04:07:43.174Z,171.51
2023-03-29T04:08:43.246Z,168.81
2023-03-29T04:09:43.287Z,174.01
2023-03-29T04:10:43.354Z,172.11
2023-03-29T04:11:43.409Z,180.18
2023-03-29T04:12:43.459Z,169.55
2023-03-29T04:13:43.527Z,165.59
2023-03-29T04:14:43.569Z,172.00
2023-03-29T04:15:43.655Z,175.03
2023-03-29T04:16:43.772Z,179.13
2023-03-29T04:17:43.852Z,175.85
2023-03-29T04:18:43.917Z,171.19
2023-03-29T04:19:43.847Z,174.63
2023-03-29T04:20:43.914Z,184.32
2023-03-29T04:21:43.943Z,187.76
2023-03-29T04:22:44.005Z,191.64
2023-03-29T04:23:44.057Z,189.96
2023-03-29T04:24:44.134Z,183.58
2023-03-29T04:25:44.154Z,173.79
2023-03-29T04:26:44.228Z,170.72
2023-03-29T04:27:44.281Z,169.81
2023-03-29T04:28:44.355Z,170.05
2023-03-29T04:29:44.411Z,176.78
2023-03-29T04:30:44.453Z,184.16
2023-03-29T04:31:44.561Z,181.28
2023-03-29T04:32:44.595Z,176.17
2023-03-29T04:33:44.634Z,169.81
2023-03-29T04:34:44.706Z,172.44
2023-03-29T04:35:44.766Z,167.79
2023-03-29T04:36:44.801Z,170.51
2023-03-29T04:37:44.866Z,170.11
2023-03-29T04:38:47.578Z,177.31
2023-03-29T04:39:44.949Z,173.86
2023-03-29T04:40:44.924Z,172.65
2023-03-29T04:41:44.903Z,176.61
2023-03-29T04:42:44.912Z,179.87
2023-03-29T04:43:44.901Z,175.92
2023-03-29T04:44:44.901Z,176.71
2023-03-29T04:45:44.882Z,177.10
2023-03-29T04:46:44.902Z,178.57
2023-03-29T04:47:44.909Z,178.71
2023-03-29T04:48:44.865Z,179.87
2023-03-29T04:49:44.857Z,184.84
2023-03-29T04:50:44.830Z,185.14
2023-03-29T04:51:44.833Z,177.90
2023-03-29T04:52:44.833Z,182.87
2023-03-29T04:53:44.820Z,178.60
2023-03-29T04:54:44.819Z,190.80
2023-03-29T04:55:44.802Z,192.61
2023-03-29T04:56:44.845Z,207.09
2023-03-29T04:57:44.793Z,212.00
2023-03-29T04:58:44.804Z,196.61
2023-03-29T04:59:44.803Z,189.97
2023-03-29T05:00:44.760Z,188.00
2023-03-29T05:01:44.811Z,184.25
2023-03-29T05:02:44.801Z,190.66
2023-03-29T05:03:44.768Z,195.42
2023-03-29T05:04:44.768Z,188.23
2023-03-29T05:05:44.739Z,186.78
2023-03-29T05:06:44.732Z,184.52
2023-03-29T05:07:44.727Z,192.75
2023-03-29T05:08:44.745Z,191.07
2023-03-29T05:09:44.698Z,198.41
2023-03-29T05:10:44.689Z,199.07
2023-03-29T05:11:44.698Z,197.22
2023-03-29T05:12:44.675Z,190.62
2023-03-29T05:13:44.696Z,193.50
2023-03-29T05:14:44.728Z,190.78
2023-03-29T05:15:44.776Z,196.21
2023-03-29T05:16:44.889Z,201.46
2023-03-29T05:17:44.915Z,208.41
2023-03-29T05:18:44.967Z,214.27
2023-03-29T05:19:45.016Z,206.50
2023-03-29T05:20:45.076Z,205.69
2023-03-29T05:21:45.737Z,202.71
2023-03-29T05:22:45.185Z,203.83
2023-03-29T05:23:45.267Z,202.14
2023-03-29T05:24:45.311Z,203.74
2023-03-29T05:25:45.831Z,206.90
2023-03-29T05:26:45.453Z,205.99
2023-03-29T05:27:45.498Z,208.94
2023-03-29T05:28:45.540Z,219.69
2023-03-29T05:29:45.596Z,228.45
2023-03-29T05:30:45.768Z,240.79
2023-03-29T05:31:45.748Z,287.76
2023-03-29T05:32:45.774Z,232.84
2023-03-29T05:33:45.783Z,227.09
2023-03-29T05:34:45.812Z,234.34
2023-03-29T05:35:45.854Z,235.03
2023-03-29T05:36:45.872Z,234.59
2023-03-29T05:37:45.931Z,243.01
2023-03-29T05:38:45.938Z,240.69
2023-03-29T05:39:45.990Z,230.33
2023-03-29T05:40:46.007Z,241.24
2023-03-29T05:41:46.025Z,243.80
2023-03-29T05:42:46.071Z,246.57
2023-03-29T05:43:46.112Z,251.36
2023-03-29T05:44:46.110Z,249.70
2023-03-29T05:45:46.171Z,250.20
2023-03-29T05:46:46.152Z,249.78
2023-03-29T05:47:46.199Z,249.85
2023-03-29T05:48:46.178Z,250.00
2023-03-29T05:49:46.184Z,249.82
2023-03-29T05:50:46.419Z,249.85
2023-03-29T05:51:46.225Z,249.15
2023-03-29T05:52:46.214Z,250.00
2023-03-29T05:53:46.253Z,249.77
2023-03-29T05:54:46.253Z,248.24
2023-03-29T05:55:46.274Z,250.00
2023-03-29T05:56:46.310Z,249.77
2023-03-29T05:57:46.265Z,250.00
2023-03-29T05:58:46.278Z,249.86
2023-03-29T05:59:46.288Z,248.48
2023-03-29T06:00:46.297Z,249.91
2023-03-29T06:01:46.282Z,250.00
2023-03-29T06:02:46.343Z,247.93
2023-03-29T06:03:46.475Z,247.63
2023-03-29T06:04:46.313Z,249.92
2023-03-29T06:05:48.385Z,250.00
2023-03-29T06:06:46.246Z,244.99
2023-03-29T06:07:46.248Z,246.14
2023-03-29T06:08:46.238Z,245.77
2023-03-29T06:09:46.226Z,246.44
2023-03-29T06:10:46.253Z,248.59
2023-03-29T06:11:46.208Z,247.90
2023-03-29T06:12:46.201Z,247.68
2023-03-29T06:13:46.204Z,247.77
2023-03-29T06:14:46.205Z,249.44
2023-03-29T06:15:46.205Z,250.00
2023-03-29T06:16:46.288Z,248.01
2023-03-29T06:17:46.188Z,249.75
2023-03-29T06:18:46.173Z,249.84
2023-03-29T06:19:46.168Z,249.37
2023-03-29T06:20:46.150Z,242.83
2023-03-29T06:21:46.156Z,242.77
2023-03-29T06:22:46.155Z,247.88
2023-03-29T06:23:46.138Z,249.41
2023-03-29T06:24:46.150Z,243.77
2023-03-29T06:25:46.358Z,235.84
2023-03-29T06:26:46.124Z,242.63
2023-03-29T06:27:46.095Z,246.84
2023-03-29T06:28:46.120Z,249.20
2023-03-29T06:29:46.098Z,249.84
2023-03-29T06:30:46.164Z,249.71
2023-03-29T06:31:46.212Z,241.43
2023-03-29T06:32:46.091Z,237.42
2023-03-29T06:33:46.084Z,242.60
2023-03-29T06:34:46.057Z,243.75
2023-03-29T06:35:46.096Z,249.21
2023-03-29T06:36:46.044Z,249.44
2023-03-29T06:37:46.044Z,249.73
2023-03-29T06:38:46.031Z,249.93
2023-03-29T06:39:46.038Z,249.20
2023-03-29T06:40:46.011Z,249.45
2023-03-29T06:41:46.019Z,250.00
2023-03-29T06:42:46.012Z,249.47
2023-03-29T06:43:46.010Z,248.84
2023-03-29T06:44:45.997Z,248.98
2023-03-29T06:45:45.979Z,249.81
2023-03-29T06:46:46.400Z,249.91
2023-03-29T06:47:46.293Z,248.86
2023-03-29T06:48:46.121Z,249.44
2023-03-29T06:49:46.161Z,249.56
2023-03-29T06:50:46.216Z,246.55
2023-03-29T06:51:46.260Z,248.13
2023-03-29T06:52:46.369Z,247.31
2023-03-29T06:53:46.367Z,244.01
2023-03-29T06:54:46.428Z,247.69
2023-03-29T06:55:46.474Z,248.02
2023-03-29T06:56:46.565Z,245.44
2023-03-29T06:57:46.555Z,244.43
2023-03-29T06:58:46.598Z,245.05
2023-03-29T06:59:46.633Z,241.57
2023-03-29T07:00:46.700Z,239.03
2023-03-29T07:01:46.761Z,239.36
2023-03-29T07:02:47.064Z,236.77
2023-03-29T07:03:47.002Z,240.45
2023-03-29T07:04:46.864Z,241.61
2023-03-29T07:05:46.880Z,241.19
2023-03-29T07:06:46.946Z,239.78
2023-03-29T07:07:47.392Z,239.01
2023-03-29T07:08:47.010Z,240.74
2023-03-29T07:09:47.053Z,240.79
2023-03-29T07:10:47.089Z,239.89
2023-03-29T07:11:47.171Z,240.02
2023-03-29T07:12:47.176Z,239.47
2023-03-29T07:13:47.193Z,239.33
2023-03-29T07:14:47.248Z,240.03
2023-03-29T07:15:47.309Z,240.90
2023-03-29T07:16:47.474Z,237.96
2023-03-29T07:17:47.376Z,238.48
2023-03-29T07:18:47.388Z,237.28
2023-03-29T07:19:47.428Z,236.28
2023-03-29T07:20:47.486Z,234.62
2023-03-29T07:21:47.877Z,236.43
2023-03-29T07:22:47.550Z,232.08
2023-03-29T07:23:47.574Z,233.57
2023-03-29T07:24:47.630Z,231.37
2023-03-29T07:25:47.664Z,233.06
2023-03-29T07:27:00.054Z,226.91
2023-03-29T07:27:49.184Z,227.12
2023-03-29T07:28:47.691Z,227.61
2023-03-29T07:29:48.361Z,228.67
2023-03-29T07:30:47.677Z,231.11
2023-03-29T07:31:47.685Z,236.89
2023-03-29T07:32:48.262Z,237.01
2023-03-29T07:33:47.757Z,237.97
2023-03-29T07:34:47.661Z,239.58
2023-03-29T07:35:47.684Z,238.60
2023-03-29T07:36:47.631Z,237.72
2023-03-29T07:37:47.873Z,237.17
2023-03-29T07:38:47.661Z,237.45
2023-03-29T07:39:47.704Z,235.68
2023-03-29T07:40:47.726Z,236.15
2023-03-29T07:41:47.769Z,235.21
2023-03-29T07:42:47.796Z,235.92
2023-03-29T07:43:47.798Z,236.20
2023-03-29T07:44:47.892Z,235.21
2023-03-29T07:45:47.846Z,235.57
2023-03-29T07:46:47.864Z,234.73
2023-03-29T07:47:47.895Z,235.44
2023-03-29T07:48:47.904Z,233.87
2023-03-29T07:49:48.384Z,233.94
2023-03-29T07:50:47.931Z,233.29
2023-03-29T07:51:47.973Z,232.83
2023-03-29T07:52:47.955Z,237.28
2023-03-29T07:53:47.977Z,242.61
2023-03-29T07:54:48.370Z,243.38
2023-03-29T07:55:48.029Z,244.48
2023-03-29T07:56:48.057Z,245.81
2023-03-29T07:57:48.050Z,246.29
2023-03-29T07:58:48.067Z,243.76
2023-03-29T07:59:48.397Z,244.53
2023-03-29T08:00:48.111Z,243.99
2023-03-29T08:01:48.115Z,240.85
2023-03-29T08:02:48.164Z,241.79
2023-03-29T08:03:48.225Z,241.28
2023-03-29T08:04:48.130Z,239.39
2023-03-29T08:05:48.124Z,233.67
2023-03-29T08:06:48.129Z,237.88
2023-03-29T08:07:48.134Z,238.77
2023-03-29T08:08:48.131Z,227.39
2023-03-29T08:09:48.370Z,228.06
2023-03-29T08:10:48.145Z,232.69
2023-03-29T08:11:48.200Z,231.69
2023-03-29T08:12:48.167Z,232.51
2023-03-29T08:13:48.173Z,232.02
2023-03-29T08:14:48.428Z,230.70
2023-03-29T08:15:48.185Z,225.63
2023-03-29T08:16:48.210Z,223.97
2023-03-29T08:17:48.273Z,221.66
2023-03-29T08:18:48.226Z,220.07
2023-03-29T08:19:51.245Z,219.34
2023-03-29T08:20:48.382Z,214.73
2023-03-29T08:21:48.195Z,215.74
2023-03-29T08:22:48.199Z,217.40
2023-03-29T08:23:48.170Z,215.85
2023-03-29T08:24:48.182Z,216.16
2023-03-29T08:25:48.393Z,218.74
2023-03-29T08:26:48.163Z,220.21
2023-03-29T08:27:48.388Z,218.81
2023-03-29T08:28:48.132Z,219.92
2023-03-29T08:29:48.149Z,222.94
2023-03-29T08:30:48.193Z,224.69
2023-03-29T08:31:48.136Z,233.04
2023-03-29T08:32:50.483Z,213.53
2023-03-29T08:33:48.110Z,145.17
2023-03-29T08:34:48.109Z,139.20
2023-03-29T08:35:48.103Z,153.13
2023-03-29T08:36:48.081Z,158.21
2023-03-29T08:37:48.390Z,161.53
2023-03-29T08:38:48.410Z,162.10
2023-03-29T08:39:48.090Z,164.91
2023-03-29T08:40:48.073Z,167.30
2023-03-29T08:41:48.067Z,173.09
2023-03-29T08:42:48.045Z,182.04
2023-03-29T08:43:48.410Z,191.21
2023-03-29T08:44:48.038Z,196.30
2023-03-29T08:45:50.797Z,199.87
2023-03-29T08:46:48.073Z,200.08
2023-03-29T08:47:48.074Z,201.14
2023-03-29T08:48:48.019Z,204.44
2023-03-29T08:49:48.018Z,208.74
2023-03-29T08:50:48.079Z,213.55
2023-03-29T08:51:48.000Z,214.69
2023-03-29T08:52:47.977Z,215.98
2023-03-29T08:53:48.000Z,218.23
2023-03-29T08:54:47.976Z,216.70
2023-03-29T08:55:47.977Z,216.90
2023-03-29T08:56:48.001Z,218.53
2023-03-29T08:57:47.935Z,219.18
2023-03-29T08:58:47.941Z,217.07
2023-03-29T08:59:47.940Z,221.60
2023-03-29T09:00:47.910Z,220.87
2023-03-29T09:01:48.721Z,217.88
2023-03-29T09:02:47.924Z,220.90
2023-03-29T09:03:48.095Z,220.17
2023-03-29T09:04:47.904Z,220.12
2023-03-29T09:05:47.894Z,219.50
2023-03-29T09:06:47.911Z,218.84
2023-03-29T09:07:47.895Z,217.40
2023-03-29T09:08:47.942Z,216.65
2023-03-29T09:09:47.849Z,217.88
2023-03-29T09:10:47.848Z,217.75
2023-03-29T09:11:47.847Z,218.76
2023-03-29T09:12:47.852Z,218.36
2023-03-29T09:13:47.849Z,217.53
2023-03-29T09:14:47.823Z,217.66
2023-03-29T09:15:47.829Z,218.86
2023-03-29T09:16:47.828Z,218.79
2023-03-29T09:17:49.683Z,219.88
2023-03-29T09:18:47.790Z,219.37
2023-03-29T09:19:47.823Z,220.84
2023-03-29T09:20:47.787Z,217.80
2023-03-29T09:21:47.780Z,217.82
2023-03-29T09:22:47.900Z,217.85
2023-03-29T09:23:47.771Z,217.59
2023-03-29T09:24:47.748Z,218.64
2023-03-29T09:25:53.495Z,217.85
2023-03-29T09:26:48.726Z,217.68
2023-03-29T09:27:47.921Z,209.81
2023-03-29T09:28:47.727Z,211.92
2023-03-29T09:29:47.718Z,213.12
2023-03-29T09:30:47.720Z,210.38
2023-03-29T09:31:47.773Z,208.10
2023-03-29T09:32:47.992Z,203.18
2023-03-29T09:33:47.903Z,206.52
2023-03-29T09:34:47.692Z,211.59
2023-03-29T09:35:47.721Z,213.42
2023-03-29T09:36:47.652Z,214.29
2023-03-29T09:37:47.682Z,213.46
2023-03-29T09:38:47.649Z,207.36
2023-03-29T09:39:47.679Z,205.26
2023-03-29T09:40:47.655Z,200.94
2023-03-29T09:41:47.620Z,192.60
2023-03-29T09:42:47.625Z,189.22
2023-03-29T09:43:47.650Z,190.13
2023-03-29T09:44:47.613Z,187.99
2023-03-29T09:45:47.661Z,182.04
2023-03-29T09:46:47.586Z,185.35
2023-03-29T09:47:47.666Z,182.34
2023-03-29T09:48:47.923Z,175.79
2023-03-29T09:49:47.565Z,170.73
2023-03-29T09:50:47.580Z,170.20
2023-03-29T09:51:47.564Z,169.91
2023-03-29T09:52:47.554Z,170.28
2023-03-29T09:53:47.532Z,175.32
2023-03-29T09:54:47.537Z,176.25
2023-03-29T09:55:49.098Z,177.57
2023-03-29T09:56:47.547Z,177.17
2023-03-29T09:57:47.517Z,174.66
2023-03-29T09:58:47.503Z,173.89
2023-03-29T09:59:47.521Z,172.44
2023-03-29T10:00:47.511Z,170.50
2023-03-29T10:01:47.560Z,170.45
2023-03-29T10:02:47.530Z,171.48
2023-03-29T10:03:47.943Z,172.49
2023-03-29T10:04:47.921Z,174.72
2023-03-29T10:05:47.446Z,171.87
2023-03-29T10:06:47.448Z,174.70
2023-03-29T10:07:47.449Z,168.18
2023-03-29T10:08:47.437Z,167.01
2023-03-29T10:09:47.436Z,167.02
2023-03-29T10:10:47.420Z,163.02
2023-03-29T10:11:47.393Z,158.00
2023-03-29T10:12:47.399Z,155.03
2023-03-29T10:13:47.382Z,161.01
2023-03-29T10:14:47.375Z,156.55
2023-03-29T10:15:47.364Z,153.16
2023-03-29T10:16:47.405Z,158.74
2023-03-29T10:17:47.426Z,157.41
2023-03-29T10:18:47.358Z,156.87
2023-03-29T10:19:47.425Z,159.79
2023-03-29T10:20:47.328Z,165.23
2023-03-29T10:21:47.313Z,165.89
2023-03-29T10:22:47.317Z,159.54
2023-03-29T10:23:47.308Z,167.42
2023-03-29T10:24:47.444Z,174.66
2023-03-29T10:25:47.322Z,134.51
2023-03-29T10:26:47.296Z,71.67
2023-03-29T10:27:47.313Z,50.84
2023-03-29T10:28:47.293Z,26.55
2023-03-29T10:29:47.277Z,21.31
2023-03-29T10:30:47.270Z,11.48
2023-03-29T10:31:47.309Z,24.12
2023-03-29T10:32:47.340Z,25.12
2023-03-29T10:33:47.241Z,24.63
2023-03-29T10:34:47.235Z,21.57
2023-03-29T10:35:47.262Z,25.72
2023-03-29T10:36:47.219Z,34.56
2023-03-29T10:37:47.220Z,44.06
2023-03-29T10:38:47.216Z,50.43
2023-03-29T10:39:47.218Z,56.54
2023-03-29T10:40:47.557Z,62.55
2023-03-29T10:41:47.215Z,66.36
2023-03-29T10:42:47.206Z,71.80
2023-03-29T10:43:47.216Z,72.62
2023-03-29T10:44:47.180Z,70.90
2023-03-29T10:45:47.224Z,77.33
2023-03-29T10:46:47.250Z,79.18
2023-03-29T10:47:47.225Z,78.65
2023-03-29T10:48:47.156Z,81.15
2023-03-29T10:50:47.140Z,94.25
2023-03-29T10:51:47.120Z,100.25
2023-03-29T10:52:47.137Z,104.72
2023-03-29T10:53:47.106Z,103.85
2023-03-29T10:54:47.104Z,101.61
2023-03-29T10:55:47.095Z,91.50
2023-03-29T10:56:47.128Z,91.47
2023-03-29T10:57:47.111Z,91.97
2023-03-29T10:58:47.090Z,95.61
2023-03-29T10:59:47.457Z,97.98
2023-03-29T11:00:47.081Z,106.48
2023-03-29T11:01:47.137Z,112.18
2023-03-29T11:02:47.121Z,114.86
2023-03-29T11:03:47.224Z,119.80
2023-03-29T11:04:47.476Z,131.61
2023-03-29T11:05:47.036Z,140.51
2023-03-29T11:06:47.036Z,146.40
2023-03-29T11:07:47.012Z,156.33
2023-03-29T11:08:47.025Z,159.26
2023-03-29T11:09:47.063Z,165.35
2023-03-29T11:10:47.098Z,164.45
2023-03-29T11:11:47.164Z,164.26
2023-03-29T11:12:47.198Z,166.99
2023-03-29T11:13:47.235Z,176.17
2023-03-29T11:14:47.449Z,160.47
2023-03-29T11:15:47.488Z,130.05
2023-03-29T11:16:47.400Z,120.92
2023-03-29T11:17:47.532Z,123.80
2023-03-29T11:18:47.435Z,127.48
2023-03-29T11:19:47.475Z,112.12
2023-03-29T11:20:47.513Z,113.03
2023-03-29T11:21:47.549Z,115.41
2023-03-29T11:22:47.623Z,113.84
2023-03-29T11:23:47.690Z,102.59
2023-03-29T11:24:47.728Z,93.93
2023-03-29T11:25:47.745Z,79.26
2023-03-29T11:26:47.751Z,81.64
2023-03-29T11:27:47.767Z,67.37
2023-03-29T11:28:47.784Z,75.29
2023-03-29T11:29:47.783Z,85.49
2023-03-29T11:30:47.900Z,75.57
2023-03-29T11:31:47.903Z,77.19
2023-03-29T11:32:47.879Z,84.11
2023-03-29T11:33:47.831Z,84.42
2023-03-29T11:34:47.818Z,89.19
2023-03-29T11:35:47.865Z,93.63
2023-03-29T11:36:47.828Z,98.63
2023-03-29T11:37:47.830Z,102.41
2023-03-29T11:38:47.832Z,105.67
2023-03-29T11:39:47.849Z,110.11
2023-03-29T11:40:47.877Z,115.28
2023-03-29T11:41:47.888Z,114.01
2023-03-29T11:42:47.946Z,117.59
2023-03-29T11:43:48.031Z,119.72
2023-03-29T11:44:48.064Z,119.27
2023-03-29T11:45:48.167Z,114.61
2023-03-29T11:46:48.227Z,116.92
2023-03-29T11:47:48.250Z,110.49
2023-03-29T11:48:48.325Z,113.05
2023-03-29T11:49:48.353Z,119.56
2023-03-29T11:50:48.410Z,112.13
2023-03-29T11:51:48.485Z,107.97
2023-03-29T11:52:48.539Z,106.84
2023-03-29T11:53:48.598Z,107.39
2023-03-29T11:54:48.653Z,103.40
2023-03-29T11:55:48.985Z,102.67
2023-03-29T11:56:48.872Z,109.21
2023-03-29T11:57:48.978Z,109.34
2023-03-29T11:58:48.913Z,112.89
2023-03-29T11:59:48.906Z,116.42
2023-03-29T12:00:48.941Z,116.19
2023-03-29T12:01:49.029Z,120.96
2023-03-29T12:02:49.579Z,143.56
2023-03-29T12:03:49.161Z,152.79
2023-03-29T12:04:49.126Z,153.69
2023-03-29T12:05:49.167Z,162.40
2023-03-29T12:06:49.214Z,160.03
2023-03-29T12:07:49.224Z,167.23
2023-03-29T12:08:49.276Z,170.32
2023-03-29T12:09:49.320Z,181.74
2023-03-29T12:10:49.324Z,191.24
2023-03-29T12:11:49.352Z,197.14
2023-03-29T12:12:49.466Z,197.55
2023-03-29T12:13:49.405Z,199.69
2023-03-29T12:14:49.411Z,204.22
2023-03-29T12:15:49.443Z,208.36
2023-03-29T12:16:49.457Z,211.72
2023-03-29T12:17:49.499Z,214.16
2023-03-29T12:18:49.483Z,215.93
2023-03-29T12:19:49.437Z,216.90
2023-03-29T12:20:49.448Z,217.15
2023-03-29T12:21:49.446Z,213.20
2023-03-29T12:22:49.449Z,215.00
2023-03-29T12:23:49.457Z,209.36
2023-03-29T12:24:49.441Z,203.35
2023-03-29T12:25:49.450Z,169.53
2023-03-29T12:26:49.469Z,154.90
2023-03-29T12:27:49.508Z,136.39
2023-03-29T12:28:49.521Z,143.10
2023-03-29T12:29:49.541Z,132.07
2023-03-29T12:30:49.593Z,124.87